createdAt,value
2023-05-23T00:02:13.294Z,11.93
2023-05-23T00:04:43.147Z,11.43
2023-05-23T00:07:10.577Z,12.73
2023-05-23T00:09:37.817Z,11.10
2023-05-23T00:12:07.635Z,11.93
2023-05-23T00:14:40.291Z,11.57
2023-05-23T00:17:10.740Z,13.23
2023-05-23T00:19:41.628Z,14.37
2023-05-23T00:22:09.613Z,14.90
2023-05-23T00:24:38.825Z,10.97
2023-05-23T00:27:05.965Z,16.67
2023-05-23T00:29:35.243Z,11.70
2023-05-23T00:32:04.652Z,15.67
2023-05-23T00:34:31.697Z,12.10
2023-05-23T00:36:58.764Z,13.00
2023-05-23T00:39:26.997Z,12.47
2023-05-23T00:41:54.081Z,23.73
2023-05-23T00:44:22.072Z,12.80
2023-05-23T00:46:58.958Z,13.70
2023-05-23T00:49:28.617Z,13.07
2023-05-23T00:51:56.011Z,18.17
2023-05-23T00:54:31.274Z,18.30
2023-05-23T00:57:00.926Z,23.83
2023-05-23T00:59:30.483Z,20.10
2023-05-23T01:02:00.346Z,15.73
2023-05-23T01:04:29.590Z,12.73
2023-05-23T01:07:00.812Z,21.13
2023-05-23T01:09:29.271Z,16.83
2023-05-23T01:12:23.829Z,13.47
2023-05-23T01:15:11.058Z,13.87
2023-05-23T01:18:16.619Z,16.97
2023-05-23T01:20:52.878Z,19.17
2023-05-23T01:23:59.452Z,14.37
2023-05-23T01:26:54.292Z,15.27
2023-05-23T01:29:34.790Z,15.10
2023-05-23T01:32:04.805Z,13.70
2023-05-23T01:34:37.482Z,15.33
2023-05-23T01:37:14.820Z,14.73
2023-05-23T01:39:45.408Z,16.23
2023-05-23T01:42:13.483Z,20.17
2023-05-23T01:44:41.042Z,15.03
2023-05-23T01:47:10.042Z,17.63
2023-05-23T01:49:37.933Z,16.40
2023-05-23T01:52:05.902Z,14.70
2023-05-23T01:54:35.665Z,15.73
2023-05-23T01:57:05.887Z,18.17
2023-05-23T01:59:38.566Z,18.30
2023-05-23T02:02:05.961Z,19.40
2023-05-23T02:04:33.208Z,17.60
2023-05-23T02:07:00.310Z,20.20
2023-05-23T02:09:27.246Z,16.63
2023-05-23T02:11:54.347Z,21.17
2023-05-23T02:14:21.837Z,20.03
2023-05-23T02:16:53.998Z,20.90
2023-05-23T02:19:25.673Z,22.13
2023-05-23T02:21:57.455Z,20.67
2023-05-23T02:24:24.462Z,20.10
2023-05-23T02:26:52.602Z,25.07
2023-05-23T02:29:19.813Z,34.30
2023-05-23T02:31:49.271Z,30.47
2023-05-23T02:34:17.611Z,27.70
2023-05-23T02:36:44.654Z,27.83
2023-05-23T02:39:14.376Z,33.73
2023-05-23T02:41:41.619Z,36.43
2023-05-23T02:44:08.691Z,43.93
2023-05-23T02:46:35.776Z,55.10
2023-05-23T02:49:02.885Z,45.20
2023-05-23T02:51:29.819Z,49.90
2023-05-23T02:53:56.785Z,46.67
2023-05-23T02:56:23.795Z,46.30
2023-05-23T02:58:51.103Z,52.90
2023-05-23T03:01:18.847Z,52.00
2023-05-23T03:03:49.577Z,55.93
2023-05-23T03:06:17.165Z,47.57
2023-05-23T03:08:44.820Z,52.87
2023-05-23T03:11:11.866Z,53.10
2023-05-23T03:13:38.993Z,52.57
2023-05-23T03:16:06.454Z,52.73
2023-05-23T03:18:33.610Z,67.03
2023-05-23T03:21:00.624Z,55.43
2023-05-23T03:23:27.613Z,58.17
2023-05-23T03:25:54.603Z,54.53
2023-05-23T03:28:21.711Z,57.07
2023-05-23T03:30:48.726Z,59.17
2023-05-23T03:33:16.027Z,57.50
2023-05-23T03:35:44.702Z,63.80
2023-05-23T03:38:11.730Z,60.20
2023-05-23T03:40:38.797Z,79.63
2023-05-23T03:43:07.436Z,76.43
2023-05-23T03:45:37.941Z,60.53
2023-05-23T03:48:05.153Z,61.73
2023-05-23T03:50:32.290Z,68.20
2023-05-23T03:52:59.483Z,68.27
2023-05-23T03:55:34.571Z,65.37
2023-05-23T03:58:01.819Z,60.97
2023-05-23T04:00:31.138Z,69.60
2023-05-23T04:02:58.569Z,59.17
2023-05-23T04:05:26.430Z,61.83
2023-05-23T04:07:53.779Z,65.27
2023-05-23T04:10:20.863Z,59.63
2023-05-23T04:12:48.243Z,60.53
2023-05-23T04:15:15.506Z,62.70
2023-05-23T04:17:43.944Z,73.03
2023-05-23T04:20:13.597Z,58.87
2023-05-23T04:22:41.342Z,53.30
2023-05-23T04:25:09.556Z,59.30
2023-05-23T04:27:42.186Z,58.77
2023-05-23T04:30:10.183Z,52.80
2023-05-23T04:32:40.938Z,51.37
2023-05-23T04:35:13.611Z,50.00
2023-05-23T04:37:42.608Z,48.07
2023-05-23T04:40:13.588Z,61.17
2023-05-23T04:42:44.697Z,47.27
2023-05-23T04:45:15.377Z,43.87
2023-05-23T04:47:47.789Z,37.73
2023-05-23T04:50:18.466Z,52.33
2023-05-23T04:52:47.858Z,50.73
2023-05-23T04:55:14.936Z,39.83
2023-05-23T04:57:41.847Z,39.27
2023-05-23T05:00:12.849Z,40.43
2023-05-23T05:02:41.852Z,39.43
2023-05-23T05:05:09.549Z,42.60
2023-05-23T05:07:39.289Z,36.10
2023-05-23T05:10:16.949Z,35.50
2023-05-23T05:12:51.059Z,36.93
2023-05-23T05:15:19.545Z,41.60
2023-05-23T05:17:49.733Z,37.63
2023-05-23T05:20:19.536Z,33.73
2023-05-23T05:22:49.727Z,30.20
2023-05-23T05:25:19.088Z,27.43
2023-05-23T05:27:46.168Z,30.60
2023-05-23T05:30:13.915Z,31.03
2023-05-23T05:32:42.221Z,30.00
2023-05-23T05:35:10.137Z,27.77
2023-05-23T05:37:41.792Z,32.77
2023-05-23T05:40:10.017Z,33.30
2023-05-23T05:42:39.283Z,27.60
2023-05-23T05:45:11.512Z,33.17
2023-05-23T05:47:38.885Z,30.20
2023-05-23T05:50:08.823Z,26.87
2023-05-23T05:52:38.838Z,31.83
2023-05-23T05:55:11.502Z,30.57
2023-05-23T05:57:40.041Z,30.40
2023-05-23T06:00:14.804Z,36.90
2023-05-23T06:02:43.211Z,36.60
2023-05-23T06:05:17.019Z,33.00
2023-05-23T06:07:51.749Z,37.53
2023-05-23T06:10:21.383Z,38.63
2023-05-23T06:12:48.681Z,45.63
2023-05-23T06:15:16.217Z,51.77
2023-05-23T06:17:44.888Z,39.00
2023-05-23T06:20:12.459Z,40.23
2023-05-23T06:22:42.127Z,41.07
2023-05-23T06:25:09.441Z,45.50
2023-05-23T06:27:38.743Z,45.00
2023-05-23T06:30:06.773Z,40.63
2023-05-23T06:32:33.852Z,45.57
2023-05-23T06:35:00.801Z,42.23
2023-05-23T06:37:32.205Z,43.60
2023-05-23T06:39:59.244Z,45.27
2023-05-23T06:42:27.174Z,47.33
2023-05-23T06:44:54.178Z,47.60
2023-05-23T06:47:23.700Z,48.17
2023-05-23T06:49:50.778Z,52.47
2023-05-23T06:52:20.425Z,48.97
2023-05-23T06:54:51.148Z,46.80
2023-05-23T06:57:18.274Z,55.57
2023-05-23T06:59:47.585Z,52.43
2023-05-23T07:02:16.898Z,56.63
2023-05-23T07:04:49.575Z,53.83
2023-05-23T07:07:16.557Z,50.93
2023-05-23T07:09:43.607Z,61.97
2023-05-23T07:12:10.599Z,51.73
2023-05-23T07:14:40.606Z,58.43
2023-05-23T07:17:07.767Z,57.70
2023-05-23T07:19:37.004Z,50.00
2023-05-23T07:22:08.906Z,49.30
2023-05-23T07:24:37.232Z,48.47
2023-05-23T07:27:04.518Z,50.40
2023-05-23T07:29:33.644Z,56.07
2023-05-23T07:32:03.257Z,62.03
2023-05-23T07:34:30.764Z,49.67
2023-05-23T07:36:57.899Z,50.60
2023-05-23T07:39:25.786Z,48.97
2023-05-23T07:41:52.708Z,51.93
2023-05-23T07:44:24.858Z,54.57
2023-05-23T07:46:52.520Z,56.47
2023-05-23T07:49:21.768Z,46.20
2023-05-23T07:51:51.335Z,42.77
2023-05-23T07:54:18.354Z,53.40
2023-05-23T07:56:50.021Z,40.77
2023-05-23T07:59:19.555Z,46.77
2023-05-23T08:01:50.709Z,42.00
2023-05-23T08:04:18.646Z,40.83
2023-05-23T08:07:00.652Z,35.57
2023-05-23T08:09:31.645Z,35.63
2023-05-23T08:11:58.684Z,33.53
2023-05-23T08:14:38.771Z,32.43
2023-05-23T08:17:16.535Z,31.97
2023-05-23T08:19:46.185Z,24.10
2023-05-23T08:22:15.502Z,23.37
2023-05-23T08:24:42.524Z,27.03
2023-05-23T08:27:09.748Z,26.57
2023-05-23T08:29:37.322Z,23.00
2023-05-23T08:32:06.927Z,19.40
2023-05-23T08:34:38.541Z,27.87
2023-05-23T08:37:07.892Z,20.77
2023-05-23T08:39:42.084Z,18.90
2023-05-23T08:42:09.166Z,18.70
2023-05-23T08:44:38.726Z,20.00
2023-05-23T08:47:05.926Z,22.33
2023-05-23T08:49:35.810Z,22.10
2023-05-23T08:52:10.877Z,22.63
2023-05-23T08:54:42.161Z,20.13
2023-05-23T08:57:09.185Z,17.23
2023-05-23T08:59:38.850Z,16.53
2023-05-23T09:02:13.797Z,20.13
2023-05-23T09:04:43.153Z,16.30
2023-05-23T09:07:12.044Z,16.93
2023-05-23T09:09:39.492Z,17.07
2023-05-23T09:12:06.892Z,13.80
2023-05-23T09:14:34.033Z,14.23
2023-05-23T09:17:04.620Z,18.47
2023-05-23T09:19:32.254Z,11.80
2023-05-23T09:22:05.625Z,11.83
2023-05-23T09:24:38.905Z,12.70
2023-05-23T09:27:07.425Z,12.03
2023-05-23T09:29:41.596Z,13.70
2023-05-23T09:32:20.021Z,19.00
2023-05-23T09:35:05.751Z,17.23
2023-05-23T09:37:40.865Z,10.57
2023-05-23T09:40:14.486Z,15.30
2023-05-23T09:42:46.345Z,11.33
2023-05-23T09:45:15.489Z,8.13
2023-05-23T09:47:52.988Z,8.10
2023-05-23T09:50:23.645Z,8.87
2023-05-23T09:52:54.348Z,7.97
2023-05-23T09:55:25.972Z,11.23
2023-05-23T09:57:58.963Z,7.93
2023-05-23T10:00:27.271Z,7.77
2023-05-23T10:03:10.707Z,20.93
2023-05-23T10:05:52.844Z,7.70
2023-05-23T10:08:40.404Z,13.93
2023-05-23T10:11:35.637Z,9.00
2023-05-23T10:14:10.863Z,10.50
2023-05-23T10:17:07.010Z,18.77
2023-05-23T10:19:52.256Z,12.60
2023-05-23T10:22:20.068Z,12.40
2023-05-23T10:24:48.924Z,15.23
2023-05-23T10:27:16.132Z,19.07
2023-05-23T10:29:46.842Z,19.53
2023-05-23T10:32:15.110Z,19.33
2023-05-23T10:35:04.567Z,16.87
2023-05-23T10:38:00.081Z,16.13
2023-05-23T10:40:26.980Z,17.60
2023-05-23T10:43:08.173Z,13.90
2023-05-23T10:45:44.481Z,14.60
2023-05-23T10:48:36.407Z,19.27
2023-05-23T10:51:06.892Z,18.13
2023-05-23T10:53:40.059Z,10.87
2023-05-23T10:56:19.622Z,13.00
2023-05-23T10:58:46.710Z,14.17
2023-05-23T11:01:20.069Z,9.03
2023-05-23T11:03:48.186Z,9.90
2023-05-23T11:06:38.486Z,10.50
2023-05-23T11:09:27.788Z,10.47
2023-05-23T11:12:05.827Z,16.53
2023-05-23T11:14:33.792Z,11.10
2023-05-23T11:17:22.025Z,13.73
2023-05-23T11:20:13.420Z,15.67
2023-05-23T11:22:42.324Z,18.07
2023-05-23T11:25:10.392Z,20.67
2023-05-23T11:27:41.897Z,25.07
2023-05-23T11:30:15.899Z,17.80
2023-05-23T11:32:53.979Z,20.17
2023-05-23T11:35:23.860Z,27.57
2023-05-23T11:37:50.992Z,21.50
2023-05-23T11:40:28.228Z,17.13
2023-05-23T11:43:08.279Z,19.03
2023-05-23T11:45:37.858Z,14.73
2023-05-23T11:48:18.103Z,19.63
2023-05-23T11:50:49.372Z,14.07
2023-05-23T11:53:19.144Z,10.00
2023-05-23T11:56:00.818Z,23.07
2023-05-23T11:58:33.702Z,18.83
2023-05-23T12:01:09.726Z,15.63
2023-05-23T12:03:52.465Z,14.93
2023-05-23T12:06:20.144Z,19.20
2023-05-23T12:08:52.380Z,9.20
2023-05-23T12:11:19.399Z,23.80
2023-05-23T12:13:46.533Z,17.07
2023-05-23T12:16:16.710Z,18.00
2023-05-23T12:18:46.440Z,19.80
2023-05-23T12:21:13.454Z,23.20
2023-05-23T12:23:42.112Z,24.07
2023-05-23T12:26:10.324Z,23.20
2023-05-23T12:28:45.809Z,18.50
2023-05-23T12:31:21.410Z,10.57
2023-05-23T12:33:49.609Z,24.93
2023-05-23T12:36:24.364Z,19.70
2023-05-23T12:38:54.061Z,14.03
2023-05-23T12:41:22.178Z,19.20
2023-05-23T12:43:56.989Z,19.70
2023-05-23T12:46:29.442Z,16.07
2023-05-23T12:49:01.335Z,13.63
2023-05-23T12:51:30.960Z,20.13
2023-05-23T12:54:00.485Z,15.20
2023-05-23T12:56:27.593Z,36.30
2023-05-23T12:58:57.093Z,14.90
2023-05-23T13:01:24.509Z,13.83
2023-05-23T13:03:57.047Z,16.43
2023-05-23T13:06:26.644Z,27.23
2023-05-23T13:08:56.280Z,20.73
2023-05-23T13:11:23.310Z,17.00
2023-05-23T13:13:54.071Z,23.33
2023-05-23T13:16:21.250Z,19.90
2023-05-23T13:18:48.503Z,25.20
2023-05-23T13:21:18.296Z,15.67
2023-05-23T13:23:48.436Z,35.57
2023-05-23T13:26:15.655Z,18.23
2023-05-23T13:28:42.783Z,15.43
2023-05-23T13:31:09.984Z,25.53
2023-05-23T13:33:38.176Z,20.60
2023-05-23T13:36:05.678Z,15.20
2023-05-23T13:38:32.633Z,25.20
2023-05-23T13:40:59.776Z,22.60
2023-05-23T13:43:31.425Z,13.13
2023-05-23T13:46:02.813Z,16.60
2023-05-23T13:48:32.470Z,18.57
2023-05-23T13:50:59.621Z,19.70
2023-05-23T13:53:27.509Z,17.97
2023-05-23T13:55:54.895Z,21.73
2023-05-23T13:58:21.909Z,25.43
2023-05-23T14:00:48.942Z,23.53
2023-05-23T14:03:20.208Z,12.57
2023-05-23T14:05:49.672Z,16.90
2023-05-23T14:08:16.850Z,27.10
2023-05-23T14:10:44.100Z,21.80
2023-05-23T14:13:12.012Z,18.77
2023-05-23T14:15:42.651Z,14.17
2023-05-23T14:18:12.736Z,16.17
2023-05-23T14:20:39.909Z,28.63
2023-05-23T14:23:07.047Z,16.70
2023-05-23T14:25:34.119Z,14.40
2023-05-23T14:28:01.321Z,19.10
2023-05-23T14:30:28.338Z,25.87
2023-05-23T14:32:57.890Z,18.00
2023-05-23T14:35:26.290Z,14.57
2023-05-23T14:37:55.686Z,12.47
2023-05-23T14:40:24.934Z,11.90
2023-05-23T14:42:52.341Z,35.43
2023-05-23T14:45:22.434Z,19.80
2023-05-23T14:47:56.668Z,14.30
2023-05-23T14:50:23.659Z,14.07
2023-05-23T14:52:50.687Z,15.93
2023-05-23T14:55:17.771Z,21.03
2023-05-23T14:57:44.744Z,15.63
2023-05-23T15:00:13.337Z,28.93
2023-05-23T15:02:40.497Z,12.97
2023-05-23T15:05:08.716Z,18.20
2023-05-23T15:07:36.044Z,11.10
2023-05-23T15:10:04.122Z,16.53
2023-05-23T15:12:31.183Z,24.10
2023-05-23T15:15:03.540Z,15.07
2023-05-23T15:17:35.441Z,18.57
2023-05-23T15:20:04.438Z,14.80
2023-05-23T15:22:39.400Z,15.00
2023-05-23T15:25:08.384Z,16.63
2023-05-23T15:27:38.633Z,20.73
2023-05-23T15:30:06.730Z,13.10
2023-05-23T15:32:34.052Z,19.10
2023-05-23T15:35:01.095Z,18.57
2023-05-23T15:37:28.095Z,15.07
2023-05-23T15:39:57.065Z,18.97
2023-05-23T15:42:24.154Z,25.53
2023-05-23T15:44:51.241Z,17.27
2023-05-23T15:47:18.875Z,37.03
2023-05-23T15:49:45.953Z,35.20
2023-05-23T15:52:13.308Z,15.77
2023-05-23T15:54:40.563Z,23.70
2023-05-23T15:57:11.082Z,20.60
2023-05-23T15:59:41.566Z,26.10
2023-05-23T16:02:11.462Z,19.10
2023-05-23T16:04:44.058Z,14.23
2023-05-23T16:07:12.309Z,19.90
2023-05-23T16:10:00.871Z,21.97
2023-05-23T16:12:33.673Z,17.23
2023-05-23T16:15:13.880Z,25.80
2023-05-23T16:18:52.754Z,21.43
2023-05-23T16:21:24.791Z,20.80
2023-05-23T16:23:51.796Z,20.10
2023-05-23T16:26:19.321Z,13.43
2023-05-23T16:28:46.485Z,19.33
2023-05-23T16:31:21.604Z,16.23
2023-05-23T16:33:51.114Z,19.10
2023-05-23T16:36:22.031Z,17.67
2023-05-23T16:38:55.567Z,29.30
2023-05-23T16:41:23.094Z,30.83
2023-05-23T16:43:57.249Z,19.37
2023-05-23T16:46:24.424Z,19.00
2023-05-23T16:48:54.523Z,26.87
2023-05-23T16:51:21.790Z,19.93
2023-05-23T16:53:51.190Z,17.83
2023-05-23T16:56:18.266Z,24.60
2023-05-23T16:58:49.893Z,16.57
2023-05-23T17:01:19.954Z,19.93
2023-05-23T17:03:50.396Z,20.70
2023-05-23T17:06:24.163Z,20.97
2023-05-23T17:08:54.490Z,16.23
2023-05-23T17:11:21.886Z,24.33
2023-05-23T17:13:53.513Z,17.43
2023-05-23T17:16:20.917Z,19.00
2023-05-23T17:18:48.564Z,23.20
2023-05-23T17:21:15.795Z,26.90
2023-05-23T17:23:45.149Z,25.03
2023-05-23T17:26:12.229Z,19.40
2023-05-23T17:28:39.552Z,27.23
2023-05-23T17:31:08.943Z,32.97
2023-05-23T17:33:38.909Z,24.70
2023-05-23T17:36:11.470Z,26.20
2023-05-23T17:38:39.345Z,23.80
2023-05-23T17:41:09.283Z,32.17
2023-05-23T17:43:39.177Z,24.70
2023-05-23T17:46:08.572Z,20.73
2023-05-23T17:48:47.068Z,33.07
2023-05-23T17:51:15.967Z,23.37
2023-05-23T17:53:43.319Z,24.83
2023-05-23T17:56:10.919Z,30.30
2023-05-23T17:58:43.232Z,18.13
2023-05-23T18:01:14.510Z,20.00
2023-05-23T18:03:44.371Z,33.43
2023-05-23T18:06:11.685Z,19.60
2023-05-23T18:08:38.601Z,19.73
2023-05-23T18:11:08.924Z,19.63
2023-05-23T18:13:38.557Z,24.83
2023-05-23T18:16:07.986Z,19.20
2023-05-23T18:18:37.846Z,19.00
2023-05-23T18:21:08.645Z,31.10
2023-05-23T18:23:37.876Z,25.13
2023-05-23T18:26:05.036Z,20.40
2023-05-23T18:28:38.693Z,37.53
2023-05-23T18:31:05.734Z,24.20
2023-05-23T18:33:34.535Z,18.63
2023-05-23T18:36:04.303Z,33.30
2023-05-23T18:38:34.496Z,18.93
2023-05-23T18:41:01.666Z,26.40
2023-05-23T18:43:30.521Z,18.63
2023-05-23T18:45:58.172Z,27.53
2023-05-23T18:48:26.076Z,16.77
2023-05-23T18:50:53.909Z,32.20
2023-05-23T18:53:21.213Z,21.93
2023-05-23T18:55:48.217Z,22.43
2023-05-23T18:58:15.978Z,22.23
2023-05-23T19:00:44.905Z,35.00
2023-05-23T19:03:13.130Z,21.03
2023-05-23T19:05:42.973Z,21.13
2023-05-23T19:08:13.049Z,21.93
2023-05-23T19:10:42.321Z,25.97
2023-05-23T19:13:11.091Z,13.63
2023-05-23T19:15:38.718Z,34.10
2023-05-23T19:18:05.833Z,20.70
2023-05-23T19:20:33.281Z,13.30
2023-05-23T19:23:01.255Z,16.73
2023-05-23T19:25:28.472Z,21.43
2023-05-23T19:27:55.777Z,35.30
2023-05-23T19:30:25.382Z,16.90
2023-05-23T19:33:01.244Z,26.23
2023-05-23T19:35:31.439Z,37.23
2023-05-23T19:38:01.478Z,27.23
2023-05-23T19:40:28.685Z,21.13
2023-05-23T19:43:00.351Z,20.30
2023-05-23T19:45:28.662Z,22.20
2023-05-23T19:47:57.608Z,31.17
2023-05-23T19:50:26.854Z,19.73
2023-05-23T19:52:53.923Z,35.17
2023-05-23T19:55:23.329Z,22.90
2023-05-23T19:57:50.652Z,14.13
2023-05-23T20:00:18.352Z,35.97
2023-05-23T20:02:48.332Z,18.90
2023-05-23T20:05:18.831Z,19.57
2023-05-23T20:07:48.289Z,22.60
2023-05-23T20:10:18.254Z,37.57
2023-05-23T20:12:45.360Z,20.50
2023-05-23T20:15:12.359Z,33.77
2023-05-23T20:17:39.414Z,33.63
2023-05-23T20:20:07.641Z,18.17
2023-05-23T20:22:34.766Z,25.63
2023-05-23T20:25:07.807Z,32.47
2023-05-23T20:27:34.789Z,39.93
2023-05-23T20:30:01.943Z,32.47
2023-05-23T20:32:28.911Z,23.00
2023-05-23T20:35:01.050Z,33.97
2023-05-23T20:37:30.693Z,43.27
2023-05-23T20:39:58.082Z,31.53
2023-05-23T20:42:26.705Z,39.07
2023-05-23T20:44:56.936Z,21.80
2023-05-23T20:47:26.260Z,25.33
2023-05-23T20:49:56.183Z,18.67
2023-05-23T20:52:26.239Z,29.33
2023-05-23T20:54:55.846Z,23.13
2023-05-23T20:57:25.550Z,19.23
2023-05-23T20:59:59.771Z,23.20
2023-05-23T21:02:27.116Z,20.70
2023-05-23T21:04:56.605Z,32.17
2023-05-23T21:07:23.603Z,18.97
2023-05-23T21:09:52.993Z,35.90
2023-05-23T21:12:22.352Z,23.13
2023-05-23T21:14:54.130Z,31.47
2023-05-23T21:17:23.962Z,22.27
2023-05-23T21:19:51.369Z,27.13
2023-05-23T21:22:20.772Z,17.97
2023-05-23T21:24:52.653Z,40.13
2023-05-23T21:27:21.933Z,39.40
2023-05-23T21:29:48.884Z,31.67
2023-05-23T21:32:18.393Z,28.70
2023-05-23T21:34:49.953Z,25.03
2023-05-23T21:37:17.048Z,24.93
2023-05-23T21:39:52.096Z,33.27
2023-05-23T21:42:24.704Z,29.90
2023-05-23T21:44:51.779Z,29.17
2023-05-23T21:47:21.160Z,36.20
2023-05-23T21:49:48.158Z,27.83
2023-05-23T21:52:19.621Z,34.80
2023-05-23T21:54:51.744Z,26.87
2023-05-23T21:57:21.069Z,34.63
2023-05-23T21:59:50.649Z,39.53
2023-05-23T22:02:17.807Z,50.57
2023-05-23T22:04:46.133Z,42.83
2023-05-23T22:07:13.192Z,25.37
2023-05-23T22:09:44.622Z,27.20
2023-05-23T22:12:14.476Z,48.00
2023-05-23T22:14:41.548Z,39.43
2023-05-23T22:17:14.239Z,28.07
2023-05-23T22:19:41.894Z,31.40
2023-05-23T22:22:09.908Z,36.10
2023-05-23T22:24:36.901Z,33.33
2023-05-23T22:27:04.209Z,36.83
2023-05-23T22:29:31.303Z,32.13
2023-05-23T22:32:00.847Z,27.40
2023-05-23T22:34:30.410Z,39.77
2023-05-23T22:36:59.830Z,28.10
2023-05-23T22:39:27.609Z,29.83
2023-05-23T22:42:01.989Z,23.53
2023-05-23T22:44:34.045Z,30.33
2023-05-23T22:47:03.696Z,52.20
2023-05-23T22:49:32.997Z,35.93
2023-05-23T22:52:04.924Z,24.57
2023-05-23T22:54:34.089Z,32.90
2023-05-23T22:57:01.238Z,43.97
2023-05-23T22:59:30.004Z,40.47
2023-05-23T23:01:59.142Z,40.10
2023-05-23T23:04:30.781Z,29.80
2023-05-23T23:07:02.660Z,33.47
2023-05-23T23:09:29.677Z,45.23
2023-05-23T23:11:56.739Z,32.90
2023-05-23T23:14:26.742Z,32.73
2023-05-23T23:16:54.472Z,37.37
2023-05-23T23:19:22.064Z,39.10
2023-05-23T23:21:54.186Z,37.67
2023-05-23T23:24:24.104Z,25.47
2023-05-23T23:26:51.111Z,29.50
2023-05-23T23:29:20.326Z,37.30
2023-05-23T23:31:52.855Z,36.33
2023-05-23T23:34:19.848Z,38.20
2023-05-23T23:36:46.779Z,49.77
2023-05-23T23:39:13.796Z,39.73
2023-05-23T23:41:43.351Z,45.30
2023-05-23T23:44:13.005Z,37.80
2023-05-23T23:46:40.109Z,47.00
2023-05-23T23:49:09.212Z,45.17
2023-05-23T23:51:38.446Z,31.73
2023-05-23T23:54:05.536Z,39.87
2023-05-23T23:56:36.516Z,28.70
2023-05-23T23:59:06.122Z,42.00
